sensor_id;sensor_type;location;lat;lon;timestamp;noise_LAeq;noise_LA_min;noise_LA_max;noise_LA01;noise_LA95
70740;Laerm;58330;51.888;11.052;2023-05-14T00:02:04;5.00;5.00;5.00;;
70740;Laerm;58330;51.888;11.052;2023-05-14T00:04:34;5.00;5.00;5.00;;
70740;Laerm;58330;51.888;11.052;2023-05-14T00:07:00;5.00;5.00;5.00;;
70740;Laerm;58330;51.888;11.052;2023-05-14T00:09:26;5.00;5.00;5.00;;
70740;Laerm;58330;51.888;11.052;2023-05-14T00:11:54;5.00;5.00;5.00;;
70740;Laerm;58330;51.888;11.052;2023-05-14T00:14:22;5.00;5.00;5.00;;
70740;Laerm;58330;51.888;11.052;2023-05-14T00:16:48;5.00;5.00;5.00;;
70740;Laerm;58330;51.888;11.052;2023-05-14T00:19:14;5.00;5.00;5.00;;
70740;Laerm;58330;51.888;11.052;2023-05-14T00:21:40;5.00;5.00;5.00;;
70740;Laerm;58330;51.888;11.052;2023-05-14T00:24:07;5.00;5.00;5.00;;
70740;Laerm;58330;51.888;11.052;2023-05-14T00:26:33;5.00;5.00;5.00;;
70740;Laerm;58330;51.888;11.052;2023-05-14T00:28:59;5.00;5.00;5.00;;
70740;Laerm;58330;51.888;11.052;2023-05-14T00:31:27;5.00;5.00;5.00;;
70740;Laerm;58330;51.888;11.052;2023-05-14T00:33:53;5.00;5.00;5.00;;
70740;Laerm;58330;51.888;11.052;2023-05-14T00:36:20;5.00;5.00;5.00;;
70740;Laerm;58330;51.888;11.052;2023-05-14T00:38:46;61.63;-334.33;96.04;;
70740;Laerm;58330;51.888;11.052;2023-05-14T00:41:12;5.00;5.00;5.00;;
70740;Laerm;58330;51.888;11.052;2023-05-14T00:43:38;5.00;5.00;5.00;;
70740;Laerm;58330;51.888;11.052;2023-05-14T00:46:05;5.00;5.00;5.00;;
70740;Laerm;58330;51.888;11.052;2023-05-14T00:48:32;5.00;5.00;5.00;;
70740;Laerm;58330;51.888;11.052;2023-05-14T00:50:59;5.00;5.00;5.00;;
70740;Laerm;58330;51.888;11.052;2023-05-14T00:53:25;5.00;5.00;5.00;;
70740;Laerm;58330;51.888;11.052;2023-05-14T00:55:51;5.00;5.00;5.00;;
70740;Laerm;58330;51.888;11.052;2023-05-14T00:58:18;5.00;5.00;5.00;;
70740;Laerm;58330;51.888;11.052;2023-05-14T01:00:44;5.00;5.00;5.00;;
70740;Laerm;58330;51.888;11.052;2023-05-14T01:03:11;5.00;5.00;5.00;;
70740;Laerm;58330;51.888;11.052;2023-05-14T01:05:46;5.00;5.00;5.00;;
70740;Laerm;58330;51.888;11.052;2023-05-14T01:08:17;5.00;5.00;5.00;;
70740;Laerm;58330;51.888;11.052;2023-05-14T01:10:48;5.00;5.00;5.00;;
70740;Laerm;58330;51.888;11.052;2023-05-14T01:13:17;5.00;5.00;5.00;;
70740;Laerm;58330;51.888;11.052;2023-05-14T01:15:47;5.00;5.00;5.00;;
70740;Laerm;58330;51.888;11.052;2023-05-14T01:18:16;5.00;5.00;5.00;;
70740;Laerm;58330;51.888;11.052;2023-05-14T01:20:44;5.00;5.00;5.00;;
70740;Laerm;58330;51.888;11.052;2023-05-14T01:23:12;5.00;5.00;5.00;;
70740;Laerm;58330;51.888;11.052;2023-05-14T01:25:38;5.00;5.00;5.00;;
70740;Laerm;58330;51.888;11.052;2023-05-14T01:28:06;5.00;5.00;5.00;;
70740;Laerm;58330;51.888;11.052;2023-05-14T01:30:34;5.00;5.00;5.00;;
70740;Laerm;58330;51.888;11.052;2023-05-14T01:33:02;5.00;5.00;5.00;;
70740;Laerm;58330;51.888;11.052;2023-05-14T01:35:30;5.00;5.00;5.00;;
70740;Laerm;58330;51.888;11.052;2023-05-14T01:37:58;5.00;5.00;5.00;;
70740;Laerm;58330;51.888;11.052;2023-05-14T01:40:27;5.00;5.00;5.00;;
70740;Laerm;58330;51.888;11.052;2023-05-14T01:42:54;5.00;5.00;5.00;;
70740;Laerm;58330;51.888;11.052;2023-05-14T01:45:21;5.00;5.00;5.00;;
70740;Laerm;58330;51.888;11.052;2023-05-14T01:47:47;5.00;5.00;5.00;;
70740;Laerm;58330;51.888;11.052;2023-05-14T01:50:14;5.00;5.00;5.00;;
70740;Laerm;58330;51.888;11.052;2023-05-14T01:52:40;5.00;5.00;5.00;;
70740;Laerm;58330;51.888;11.052;2023-05-14T01:55:07;5.00;5.00;5.00;;
70740;Laerm;58330;51.888;11.052;2023-05-14T01:57:34;5.00;5.00;5.00;;
70740;Laerm;58330;51.888;11.052;2023-05-14T02:00:01;5.00;5.00;5.00;;
70740;Laerm;58330;51.888;11.052;2023-05-14T02:02:28;5.00;5.00;5.00;;
70740;Laerm;58330;51.888;11.052;2023-05-14T02:04:54;5.00;5.00;5.00;;
70740;Laerm;58330;51.888;11.052;2023-05-14T02:07:20;5.00;5.00;5.00;;
70740;Laerm;58330;51.888;11.052;2023-05-14T02:09:47;5.00;5.00;5.00;;
70740;Laerm;58330;51.888;11.052;2023-05-14T02:12:13;5.00;5.00;5.00;;
70740;Laerm;58330;51.888;11.052;2023-05-14T02:14:41;5.00;5.00;5.00;;
70740;Laerm;58330;51.888;11.052;2023-05-14T02:17:07;5.00;5.00;5.00;;
70740;Laerm;58330;51.888;11.052;2023-05-14T02:19:33;5.00;5.00;5.00;;
70740;Laerm;58330;51.888;11.052;2023-05-14T02:21:59;5.00;5.00;5.00;;
70740;Laerm;58330;51.888;11.052;2023-05-14T02:24:26;5.00;5.00;5.00;;
70740;Laerm;58330;51.888;11.052;2023-05-14T02:26:52;5.00;5.00;5.00;;
70740;Laerm;58330;51.888;11.052;2023-05-14T02:29:18;5.00;5.00;5.00;;
70740;Laerm;58330;51.888;11.052;2023-05-14T02:31:46;5.00;5.00;5.00;;
70740;Laerm;58330;51.888;11.052;2023-05-14T02:34:12;5.00;5.00;5.00;;
70740;Laerm;58330;51.888;11.052;2023-05-14T02:36:38;5.00;5.00;5.00;;
70740;Laerm;58330;51.888;11.052;2023-05-14T02:39:05;5.00;5.00;5.00;;
70740;Laerm;58330;51.888;11.052;2023-05-14T02:41:31;5.00;5.00;5.00;;
70740;Laerm;58330;51.888;11.052;2023-05-14T02:43:57;5.00;5.00;5.00;;
70740;Laerm;58330;51.888;11.052;2023-05-14T02:46:23;5.00;5.00;5.00;;
70740;Laerm;58330;51.888;11.052;2023-05-14T02:48:51;5.00;5.00;5.00;;
70740;Laerm;58330;51.888;11.052;2023-05-14T02:51:18;5.00;5.00;5.00;;
70740;Laerm;58330;51.888;11.052;2023-05-14T02:53:44;5.00;5.00;5.00;;
70740;Laerm;58330;51.888;11.052;2023-05-14T02:56:11;5.00;5.00;5.00;;
70740;Laerm;58330;51.888;11.052;2023-05-14T02:58:37;5.00;5.00;5.00;;
70740;Laerm;58330;51.888;11.052;2023-05-14T03:01:03;5.00;5.00;5.00;;
70740;Laerm;58330;51.888;11.052;2023-05-14T03:03:30;5.00;5.00;5.00;;
70740;Laerm;58330;51.888;11.052;2023-05-14T03:05:57;5.00;5.00;5.00;;
70740;Laerm;58330;51.888;11.052;2023-05-14T03:08:24;5.00;5.00;5.00;;
70740;Laerm;58330;51.888;11.052;2023-05-14T03:10:50;5.00;5.00;5.00;;
70740;Laerm;58330;51.888;11.052;2023-05-14T03:13:16;5.00;5.00;5.00;;
70740;Laerm;58330;51.888;11.052;2023-05-14T03:15:44;5.00;5.00;5.00;;
70740;Laerm;58330;51.888;11.052;2023-05-14T03:18:11;5.00;5.00;5.00;;
70740;Laerm;58330;51.888;11.052;2023-05-14T03:20:38;5.00;5.00;5.00;;
70740;Laerm;58330;51.888;11.052;2023-05-14T03:23:05;5.00;5.00;5.00;;
70740;Laerm;58330;51.888;11.052;2023-05-14T03:25:32;5.00;5.00;5.00;;
70740;Laerm;58330;51.888;11.052;2023-05-14T03:27:58;5.00;5.00;5.00;;
70740;Laerm;58330;51.888;11.052;2023-05-14T03:30:25;5.00;5.00;5.00;;
70740;Laerm;58330;51.888;11.052;2023-05-14T03:32:57;5.00;5.00;5.00;;
70740;Laerm;58330;51.888;11.052;2023-05-14T03:35:24;5.00;5.00;5.00;;
70740;Laerm;58330;51.888;11.052;2023-05-14T03:37:50;5.00;5.00;5.00;;
70740;Laerm;58330;51.888;11.052;2023-05-14T03:40:18;5.00;5.00;5.00;;
70740;Laerm;58330;51.888;11.052;2023-05-14T03:42:45;5.00;5.00;5.00;;
70740;Laerm;58330;51.888;11.052;2023-05-14T03:45:11;5.00;5.00;5.00;;
70740;Laerm;58330;51.888;11.052;2023-05-14T03:47:37;5.00;5.00;5.00;;
70740;Laerm;58330;51.888;11.052;2023-05-14T03:50:04;5.00;5.00;5.00;;
70740;Laerm;58330;51.888;11.052;2023-05-14T03:52:30;5.00;5.00;5.00;;
70740;Laerm;58330;51.888;11.052;2023-05-14T03:54:57;5.00;5.00;5.00;;
70740;Laerm;58330;51.888;11.052;2023-05-14T03:57:24;5.00;5.00;5.00;;
70740;Laerm;58330;51.888;11.052;2023-05-14T03:59:51;5.00;5.00;5.00;;
70740;Laerm;58330;51.888;11.052;2023-05-14T04:02:17;5.00;5.00;5.00;;
70740;Laerm;58330;51.888;11.052;2023-05-14T04:04:43;5.00;5.00;5.00;;
70740;Laerm;58330;51.888;11.052;2023-05-14T04:07:10;5.00;5.00;5.00;;
70740;Laerm;58330;51.888;11.052;2023-05-14T04:09:36;5.00;5.00;5.00;;
70740;Laerm;58330;51.888;11.052;2023-05-14T04:12:02;5.00;5.00;5.00;;
70740;Laerm;58330;51.888;11.052;2023-05-14T04:14:30;5.00;5.00;5.00;;
70740;Laerm;58330;51.888;11.052;2023-05-14T04:16:56;5.00;5.00;5.00;;
70740;Laerm;58330;51.888;11.052;2023-05-14T04:19:23;5.00;5.00;5.00;;
70740;Laerm;58330;51.888;11.052;2023-05-14T04:21:49;5.00;5.00;5.00;;
70740;Laerm;58330;51.888;11.052;2023-05-14T04:24:15;5.00;5.00;5.00;;
70740;Laerm;58330;51.888;11.052;2023-05-14T04:26:42;5.00;5.00;5.00;;
70740;Laerm;58330;51.888;11.052;2023-05-14T04:29:08;5.00;5.00;5.00;;
70740;Laerm;58330;51.888;11.052;2023-05-14T04:31:36;5.00;5.00;5.00;;
70740;Laerm;58330;51.888;11.052;2023-05-14T04:34:02;5.00;5.00;5.00;;
70740;Laerm;58330;51.888;11.052;2023-05-14T04:36:29;5.00;5.00;5.00;;
70740;Laerm;58330;51.888;11.052;2023-05-14T04:38:55;5.00;5.00;5.00;;
70740;Laerm;58330;51.888;11.052;2023-05-14T04:41:21;5.00;5.00;5.00;;
70740;Laerm;58330;51.888;11.052;2023-05-14T04:43:48;5.00;5.00;5.00;;
70740;Laerm;58330;51.888;11.052;2023-05-14T04:46:15;5.00;5.00;5.00;;
70740;Laerm;58330;51.888;11.052;2023-05-14T04:48:42;5.00;5.00;5.00;;
70740;Laerm;58330;51.888;11.052;2023-05-14T04:51:08;5.00;5.00;5.00;;
70740;Laerm;58330;51.888;11.052;2023-05-14T04:53:35;5.00;5.00;5.00;;
70740;Laerm;58330;51.888;11.052;2023-05-14T04:56:01;5.00;5.00;5.00;;
70740;Laerm;58330;51.888;11.052;2023-05-14T04:58:27;5.00;5.00;5.00;;
70740;Laerm;58330;51.888;11.052;2023-05-14T05:00:56;5.00;5.00;5.00;;
70740;Laerm;58330;51.888;11.052;2023-05-14T05:03:22;5.00;5.00;5.00;;
70740;Laerm;58330;51.888;11.052;2023-05-14T05:05:50;5.00;5.00;5.00;;
70740;Laerm;58330;51.888;11.052;2023-05-14T05:08:16;5.00;5.00;5.00;;
70740;Laerm;58330;51.888;11.052;2023-05-14T05:10:43;5.00;5.00;5.00;;
70740;Laerm;58330;51.888;11.052;2023-05-14T05:13:09;5.00;5.00;5.00;;
70740;Laerm;58330;51.888;11.052;2023-05-14T05:15:36;5.00;5.00;5.00;;
70740;Laerm;58330;51.888;11.052;2023-05-14T05:18:02;5.00;5.00;5.00;;
70740;Laerm;58330;51.888;11.052;2023-05-14T05:20:28;5.00;5.00;5.00;;
70740;Laerm;58330;51.888;11.052;2023-05-14T05:22:56;5.00;5.00;5.00;;
70740;Laerm;58330;51.888;11.052;2023-05-14T05:25:23;5.00;5.00;5.00;;
70740;Laerm;58330;51.888;11.052;2023-05-14T05:27:49;5.00;5.00;5.00;;
70740;Laerm;58330;51.888;11.052;2023-05-14T05:30:16;5.00;5.00;5.00;;
70740;Laerm;58330;51.888;11.052;2023-05-14T05:32:42;5.00;5.00;5.00;;
70740;Laerm;58330;51.888;11.052;2023-05-14T05:35:08;5.00;5.00;5.00;;
70740;Laerm;58330;51.888;11.052;2023-05-14T05:37:38;5.00;5.00;5.00;;
70740;Laerm;58330;51.888;11.052;2023-05-14T05:40:06;5.00;5.00;5.00;;
70740;Laerm;58330;51.888;11.052;2023-05-14T05:42:33;5.00;5.00;5.00;;
70740;Laerm;58330;51.888;11.052;2023-05-14T05:44:59;5.00;5.00;5.00;;
70740;Laerm;58330;51.888;11.052;2023-05-14T05:47:25;5.00;5.00;5.00;;
70740;Laerm;58330;51.888;11.052;2023-05-14T05:49:52;5.00;5.00;5.00;;
70740;Laerm;58330;51.888;11.052;2023-05-14T05:52:18;5.00;5.00;5.00;;
70740;Laerm;58330;51.888;11.052;2023-05-14T05:54:45;5.00;5.00;5.00;;
70740;Laerm;58330;51.888;11.052;2023-05-14T05:57:12;5.00;5.00;5.00;;
70740;Laerm;58330;51.888;11.052;2023-05-14T05:59:39;5.00;5.00;5.00;;
70740;Laerm;58330;51.888;11.052;2023-05-14T06:02:05;5.00;5.00;5.00;;
70740;Laerm;58330;51.888;11.052;2023-05-14T06:04:31;5.00;5.00;5.00;;
70740;Laerm;58330;51.888;11.052;2023-05-14T06:06:58;5.00;5.00;5.00;;
70740;Laerm;58330;51.888;11.052;2023-05-14T06:09:24;5.00;5.00;5.00;;
70740;Laerm;58330;51.888;11.052;2023-05-14T06:12:00;5.00;5.00;5.00;;
70740;Laerm;58330;51.888;11.052;2023-05-14T06:14:27;5.00;5.00;5.00;;
70740;Laerm;58330;51.888;11.052;2023-05-14T06:16:54;5.00;5.00;5.00;;
70740;Laerm;58330;51.888;11.052;2023-05-14T06:19:21;5.00;5.00;5.00;;
70740;Laerm;58330;51.888;11.052;2023-05-14T06:21:48;5.00;5.00;5.00;;
70740;Laerm;58330;51.888;11.052;2023-05-14T06:24:14;5.00;5.00;5.00;;
70740;Laerm;58330;51.888;11.052;2023-05-14T06:26:41;5.00;5.00;5.00;;
70740;Laerm;58330;51.888;11.052;2023-05-14T06:29:07;5.00;5.00;5.00;;
70740;Laerm;58330;51.888;11.052;2023-05-14T06:31:35;5.00;5.00;5.00;;
70740;Laerm;58330;51.888;11.052;2023-05-14T06:34:01;5.00;5.00;5.00;;
70740;Laerm;58330;51.888;11.052;2023-05-14T06:36:27;5.00;5.00;5.00;;
70740;Laerm;58330;51.888;11.052;2023-05-14T06:38:54;5.00;5.00;5.00;;
70740;Laerm;58330;51.888;11.052;2023-05-14T06:41:20;5.00;5.00;5.00;;
70740;Laerm;58330;51.888;11.052;2023-05-14T06:43:46;5.00;5.00;5.00;;
70740;Laerm;58330;51.888;11.052;2023-05-14T06:46:13;5.00;5.00;5.00;;
70740;Laerm;58330;51.888;11.052;2023-05-14T06:48:41;5.00;5.00;5.00;;
70740;Laerm;58330;51.888;11.052;2023-05-14T06:51:07;5.00;5.00;5.00;;
70740;Laerm;58330;51.888;11.052;2023-05-14T06:53:34;5.00;5.00;5.00;;
70740;Laerm;58330;51.888;11.052;2023-05-14T06:56:01;5.00;5.00;5.00;;
70740;Laerm;58330;51.888;11.052;2023-05-14T06:58:27;5.00;5.00;5.00;;
70740;Laerm;58330;51.888;11.052;2023-05-14T07:00:54;5.00;5.00;5.00;;
70740;Laerm;58330;51.888;11.052;2023-05-14T07:03:20;5.00;5.00;5.00;;
70740;Laerm;58330;51.888;11.052;2023-05-14T07:05:48;5.00;5.00;5.00;;
70740;Laerm;58330;51.888;11.052;2023-05-14T07:08:14;5.00;5.00;5.00;;
70740;Laerm;58330;51.888;11.052;2023-05-14T07:10:40;5.00;5.00;5.00;;
70740;Laerm;58330;51.888;11.052;2023-05-14T07:13:07;5.00;5.00;5.00;;
70740;Laerm;58330;51.888;11.052;2023-05-14T07:15:33;5.00;5.00;5.00;;
70740;Laerm;58330;51.888;11.052;2023-05-14T07:17:59;5.00;5.00;5.00;;
70740;Laerm;58330;51.888;11.052;2023-05-14T07:20:26;5.00;5.00;5.00;;
70740;Laerm;58330;51.888;11.052;2023-05-14T07:22:53;5.00;5.00;5.00;;
70740;Laerm;58330;51.888;11.052;2023-05-14T07:25:20;5.00;5.00;5.00;;
70740;Laerm;58330;51.888;11.052;2023-05-14T07:27:46;5.00;5.00;5.00;;
70740;Laerm;58330;51.888;11.052;2023-05-14T07:30:13;5.00;5.00;5.00;;
70740;Laerm;58330;51.888;11.052;2023-05-14T07:32:39;5.00;5.00;5.00;;
70740;Laerm;58330;51.888;11.052;2023-05-14T07:35:06;5.00;5.00;5.00;;
70740;Laerm;58330;51.888;11.052;2023-05-14T07:37:33;5.00;5.00;5.00;;
70740;Laerm;58330;51.888;11.052;2023-05-14T07:40:00;5.00;5.00;5.00;;
70740;Laerm;58330;51.888;11.052;2023-05-14T07:42:27;5.00;5.00;5.00;;
70740;Laerm;58330;51.888;11.052;2023-05-14T07:44:53;5.00;5.00;5.00;;
70740;Laerm;58330;51.888;11.052;2023-05-14T07:47:19;5.00;5.00;5.00;;
70740;Laerm;58330;51.888;11.052;2023-05-14T07:49:46;5.00;5.00;5.00;;
70740;Laerm;58330;51.888;11.052;2023-05-14T07:52:12;5.00;5.00;5.00;;
70740;Laerm;58330;51.888;11.052;2023-05-14T07:54:38;5.00;5.00;5.00;;
70740;Laerm;58330;51.888;11.052;2023-05-14T07:57:06;5.00;5.00;5.00;;
70740;Laerm;58330;51.888;11.052;2023-05-14T07:59:32;5.00;5.00;5.00;;
70740;Laerm;58330;51.888;11.052;2023-05-14T08:01:59;5.00;5.00;5.00;;
70740;Laerm;58330;51.888;11.052;2023-05-14T08:04:25;5.00;5.00;5.00;;
70740;Laerm;58330;51.888;11.052;2023-05-14T08:06:51;5.00;5.00;5.00;;
70740;Laerm;58330;51.888;11.052;2023-05-14T08:09:18;5.00;5.00;5.00;;
70740;Laerm;58330;51.888;11.052;2023-05-14T08:11:44;5.00;5.00;5.00;;
70740;Laerm;58330;51.888;11.052;2023-05-14T08:14:12;5.00;5.00;5.00;;
70740;Laerm;58330;51.888;11.052;2023-05-14T08:16:38;5.00;5.00;5.00;;
70740;Laerm;58330;51.888;11.052;2023-05-14T08:19:05;5.00;5.00;5.00;;
70740;Laerm;58330;51.888;11.052;2023-05-14T08:21:31;5.00;5.00;5.00;;
70740;Laerm;58330;51.888;11.052;2023-05-14T08:23:57;5.00;5.00;5.00;;
70740;Laerm;58330;51.888;11.052;2023-05-14T08:26:24;5.00;5.00;5.00;;
70740;Laerm;58330;51.888;11.052;2023-05-14T08:28:51;5.00;5.00;5.00;;
70740;Laerm;58330;51.888;11.052;2023-05-14T08:31:19;5.00;5.00;5.00;;
70740;Laerm;58330;51.888;11.052;2023-05-14T08:33:45;5.00;5.00;5.00;;
70740;Laerm;58330;51.888;11.052;2023-05-14T08:36:11;5.00;5.00;5.00;;
70740;Laerm;58330;51.888;11.052;2023-05-14T08:38:37;5.00;5.00;5.00;;
70740;Laerm;58330;51.888;11.052;2023-05-14T08:41:04;5.00;5.00;5.00;;
70740;Laerm;58330;51.888;11.052;2023-05-14T08:43:33;5.00;5.00;5.00;;
70740;Laerm;58330;51.888;11.052;2023-05-14T08:46:03;5.00;5.00;5.00;;
70740;Laerm;58330;51.888;11.052;2023-05-14T08:48:32;5.00;5.00;5.00;;
70740;Laerm;58330;51.888;11.052;2023-05-14T08:50:58;5.00;5.00;5.00;;
70740;Laerm;58330;51.888;11.052;2023-05-14T08:53:25;5.00;5.00;5.00;;
70740;Laerm;58330;51.888;11.052;2023-05-14T08:55:52;5.00;5.00;5.00;;
70740;Laerm;58330;51.888;11.052;2023-05-14T08:58:18;5.00;5.00;5.00;;
70740;Laerm;58330;51.888;11.052;2023-05-14T09:00:45;5.00;5.00;5.00;;
70740;Laerm;58330;51.888;11.052;2023-05-14T09:03:11;5.00;5.00;5.00;;
70740;Laerm;58330;51.888;11.052;2023-05-14T09:05:39;5.00;5.00;5.00;;
70740;Laerm;58330;51.888;11.052;2023-05-14T09:08:06;5.00;5.00;5.00;;
70740;Laerm;58330;51.888;11.052;2023-05-14T09:10:32;5.00;5.00;5.00;;
70740;Laerm;58330;51.888;11.052;2023-05-14T09:13:11;5.00;5.00;5.00;;
70740;Laerm;58330;51.888;11.052;2023-05-14T09:15:37;5.00;5.00;5.00;;
70740;Laerm;58330;51.888;11.052;2023-05-14T09:18:05;5.00;5.00;5.00;;
70740;Laerm;58330;51.888;11.052;2023-05-14T09:20:31;5.00;5.00;5.00;;
70740;Laerm;58330;51.888;11.052;2023-05-14T09:22:59;5.00;5.00;5.00;;
70740;Laerm;58330;51.888;11.052;2023-05-14T09:25:26;5.00;5.00;5.00;;
70740;Laerm;58330;51.888;11.052;2023-05-14T09:27:52;5.00;5.00;5.00;;
70740;Laerm;58330;51.888;11.052;2023-05-14T09:30:19;5.00;5.00;5.00;;
70740;Laerm;58330;51.888;11.052;2023-05-14T09:32:45;5.00;5.00;5.00;;
70740;Laerm;58330;51.888;11.052;2023-05-14T09:35:16;5.00;5.00;5.00;;
70740;Laerm;58330;51.888;11.052;2023-05-14T09:37:43;59.65;5.00;95.49;;
70740;Laerm;58330;51.888;11.052;2023-05-14T09:40:12;31.61;29.87;43.49;;
70740;Laerm;58330;51.888;11.052;2023-05-14T09:42:38;31.75;29.95;43.51;;
70740;Laerm;58330;51.888;11.052;2023-05-14T09:45:06;31.82;29.69;43.09;;
70740;Laerm;58330;51.888;11.052;2023-05-14T09:47:32;31.55;29.67;42.44;;
70740;Laerm;58330;51.888;11.052;2023-05-14T09:49:58;31.46;29.94;37.64;;
70740;Laerm;58330;51.888;11.052;2023-05-14T09:52:25;31.15;29.70;33.94;;
70740;Laerm;58330;51.888;11.052;2023-05-14T09:54:51;31.32;29.67;35.47;;
70740;Laerm;58330;51.888;11.052;2023-05-14T09:57:19;31.16;29.30;36.06;;
70740;Laerm;58330;51.888;11.052;2023-05-14T09:59:55;31.12;29.73;36.19;;
70740;Laerm;58330;51.888;11.052;2023-05-14T10:02:22;31.11;29.48;38.40;;
70740;Laerm;58330;51.888;11.052;2023-05-14T10:04:49;30.81;29.48;34.83;;
70740;Laerm;58330;51.888;11.052;2023-05-14T10:07:17;31.26;29.62;40.22;;
70740;Laerm;58330;51.888;11.052;2023-05-14T10:09:44;31.15;29.39;36.63;;
70740;Laerm;58330;51.888;11.052;2023-05-14T10:12:10;30.64;29.11;32.61;;
70740;Laerm;58330;51.888;11.052;2023-05-14T10:14:52;30.98;29.12;36.55;;
70740;Laerm;58330;51.888;11.052;2023-05-14T10:17:35;30.57;29.09;36.57;;
70740;Laerm;58330;51.888;11.052;2023-05-14T10:20:03;30.99;29.34;34.47;;
70740;Laerm;58330;51.888;11.052;2023-05-14T10:22:32;30.84;29.24;37.41;;
70740;Laerm;58330;51.888;11.052;2023-05-14T10:24:59;30.52;29.17;34.62;;
70740;Laerm;58330;51.888;11.052;2023-05-14T10:27:26;30.73;29.16;38.32;;
70740;Laerm;58330;51.888;11.052;2023-05-14T10:29:55;30.62;28.89;35.79;;
70740;Laerm;58330;51.888;11.052;2023-05-14T10:32:21;29.99;28.71;31.36;;
70740;Laerm;58330;51.888;11.052;2023-05-14T10:34:49;29.96;28.45;32.17;;
70740;Laerm;58330;51.888;11.052;2023-05-14T10:37:17;30.13;28.72;33.01;;
70740;Laerm;58330;51.888;11.052;2023-05-14T10:39:45;30.16;28.70;34.34;;
70740;Laerm;58330;51.888;11.052;2023-05-14T10:42:12;30.07;28.44;34.80;;
70740;Laerm;58330;51.888;11.052;2023-05-14T10:44:41;30.24;28.74;33.83;;
70740;Laerm;58330;51.888;11.052;2023-05-14T10:47:11;30.35;28.77;32.33;;
70740;Laerm;58330;51.888;11.052;2023-05-14T10:49:38;30.71;28.57;37.28;;
70740;Laerm;58330;51.888;11.052;2023-05-14T10:52:06;30.26;28.75;32.10;;
70740;Laerm;58330;51.888;11.052;2023-05-14T10:54:33;30.36;28.90;32.40;;
70740;Laerm;58330;51.888;11.052;2023-05-14T10:57:00;30.46;28.72;38.65;;
70740;Laerm;58330;51.888;11.052;2023-05-14T10:59:26;30.73;28.80;37.56;;
70740;Laerm;58330;51.888;11.052;2023-05-14T11:01:53;30.09;28.54;34.78;;
70740;Laerm;58330;51.888;11.052;2023-05-14T11:04:23;29.95;28.63;33.43;;
70740;Laerm;58330;51.888;11.052;2023-05-14T11:06:49;29.88;28.18;31.50;;
70740;Laerm;58330;51.888;11.052;2023-05-14T11:09:17;29.92;28.59;33.60;;
70740;Laerm;58330;51.888;11.052;2023-05-14T11:11:45;30.46;28.68;35.89;;
70740;Laerm;58330;51.888;11.052;2023-05-14T11:14:12;30.68;28.70;39.07;;
70740;Laerm;58330;51.888;11.052;2023-05-14T11:16:39;29.95;28.60;33.41;;
70740;Laerm;58330;51.888;11.052;2023-05-14T11:19:06;30.38;28.49;36.52;;
70740;Laerm;58330;51.888;11.052;2023-05-14T11:21:33;30.16;28.78;35.04;;
70740;Laerm;58330;51.888;11.052;2023-05-14T11:24:00;30.14;28.60;35.78;;
70740;Laerm;58330;51.888;11.052;2023-05-14T11:26:27;30.05;28.60;32.58;;
70740;Laerm;58330;51.888;11.052;2023-05-14T11:28:55;30.01;28.57;33.70;;
70740;Laerm;58330;51.888;11.052;2023-05-14T11:31:21;29.99;28.42;31.82;;
70740;Laerm;58330;51.888;11.052;2023-05-14T11:33:48;30.34;28.61;36.30;;
70740;Laerm;58330;51.888;11.052;2023-05-14T11:36:14;30.13;28.48;35.44;;
70740;Laerm;58330;51.888;11.052;2023-05-14T11:38:58;29.86;28.34;31.32;;
70740;Laerm;58330;51.888;11.052;2023-05-14T11:41:24;30.02;28.51;35.93;;
70740;Laerm;58330;51.888;11.052;2023-05-14T11:43:52;30.00;28.47;33.27;;
70740;Laerm;58330;51.888;11.052;2023-05-14T11:46:18;29.87;28.55;32.31;;
70740;Laerm;58330;51.888;11.052;2023-05-14T11:48:45;29.82;28.33;31.39;;
70740;Laerm;58330;51.888;11.052;2023-05-14T11:51:12;29.85;28.43;32.05;;
70740;Laerm;58330;51.888;11.052;2023-05-14T11:53:38;30.90;28.50;39.33;;
70740;Laerm;58330;51.888;11.052;2023-05-14T11:56:06;30.39;28.42;39.79;;
70740;Laerm;58330;51.888;11.052;2023-05-14T11:58:32;32.35;28.49;46.31;;
70740;Laerm;58330;51.888;11.052;2023-05-14T12:00:59;30.15;28.45;35.33;;
70740;Laerm;58330;51.888;11.052;2023-05-14T12:03:25;29.78;28.56;31.09;;
70740;Laerm;58330;51.888;11.052;2023-05-14T12:05:54;29.85;28.18;34.93;;
70740;Laerm;58330;51.888;11.052;2023-05-14T12:08:20;29.91;28.44;33.43;;
70740;Laerm;58330;51.888;11.052;2023-05-14T12:10:51;30.04;28.44;33.85;;
70740;Laerm;58330;51.888;11.052;2023-05-14T12:13:32;30.08;28.31;33.73;;
70740;Laerm;58330;51.888;11.052;2023-05-14T12:15:59;29.89;28.41;35.44;;
70740;Laerm;58330;51.888;11.052;2023-05-14T12:18:27;29.87;28.34;35.13;;
70740;Laerm;58330;51.888;11.052;2023-05-14T12:20:54;30.34;28.55;36.21;;
70740;Laerm;58330;51.888;11.052;2023-05-14T12:23:23;30.28;28.49;35.07;;
70740;Laerm;58330;51.888;11.052;2023-05-14T12:25:50;30.03;28.22;36.88;;
70740;Laerm;58330;51.888;11.052;2023-05-14T12:28:17;30.25;28.49;37.18;;
70740;Laerm;58330;51.888;11.052;2023-05-14T12:30:45;30.49;28.45;37.19;;
70740;Laerm;58330;51.888;11.052;2023-05-14T12:33:21;30.18;28.29;39.01;;
70740;Laerm;58330;51.888;11.052;2023-05-14T12:35:47;30.16;28.33;36.95;;
70740;Laerm;58330;51.888;11.052;2023-05-14T12:38:14;30.01;28.20;36.45;;
70740;Laerm;58330;51.888;11.052;2023-05-14T12:40:40;30.14;28.31;39.85;;
70740;Laerm;58330;51.888;11.052;2023-05-14T12:43:06;29.96;28.39;34.56;;
70740;Laerm;58330;51.888;11.052;2023-05-14T12:45:33;29.60;27.91;32.01;;
70740;Laerm;58330;51.888;11.052;2023-05-14T12:48:01;29.89;28.19;33.10;;
70740;Laerm;58330;51.888;11.052;2023-05-14T12:50:27;29.96;28.12;35.73;;
70740;Laerm;58330;51.888;11.052;2023-05-14T12:53:06;29.75;28.17;39.35;;
70740;Laerm;58330;51.888;11.052;2023-05-14T12:55:33;29.53;28.21;30.80;;
70740;Laerm;58330;51.888;11.052;2023-05-14T12:57:59;30.12;28.27;36.26;;
70740;Laerm;58330;51.888;11.052;2023-05-14T13:00:26;29.92;28.38;34.45;;
70740;Laerm;58330;51.888;11.052;2023-05-14T13:02:52;30.33;28.02;40.77;;
70740;Laerm;58330;51.888;11.052;2023-05-14T13:05:20;29.69;28.16;40.30;;
70740;Laerm;58330;51.888;11.052;2023-05-14T13:07:46;30.06;28.33;36.84;;
70740;Laerm;58330;51.888;11.052;2023-05-14T13:10:12;29.88;28.20;39.22;;
70740;Laerm;58330;51.888;11.052;2023-05-14T13:12:39;30.00;28.20;36.82;;
70740;Laerm;58330;51.888;11.052;2023-05-14T13:15:06;30.05;28.17;37.42;;
70740;Laerm;58330;51.888;11.052;2023-05-14T13:17:32;30.02;27.89;36.35;;
70740;Laerm;58330;51.888;11.052;2023-05-14T13:19:59;30.80;28.31;45.27;;
70740;Laerm;58330;51.888;11.052;2023-05-14T13:22:26;29.79;28.22;34.85;;
70740;Laerm;58330;51.888;11.052;2023-05-14T13:24:53;34.70;28.12;52.56;;
70740;Laerm;58330;51.888;11.052;2023-05-14T13:27:19;30.09;27.96;35.84;;
70740;Laerm;58330;51.888;11.052;2023-05-14T13:29:45;30.18;28.20;35.59;;
70740;Laerm;58330;51.888;11.052;2023-05-14T13:32:11;33.32;27.91;45.43;;
70740;Laerm;58330;51.888;11.052;2023-05-14T13:34:38;30.05;28.30;35.69;;
70740;Laerm;58330;51.888;11.052;2023-05-14T13:37:04;30.32;28.26;37.30;;
70740;Laerm;58330;51.888;11.052;2023-05-14T13:39:32;29.97;28.08;35.67;;
70740;Laerm;58330;51.888;11.052;2023-05-14T13:41:59;30.23;28.34;38.67;;
70740;Laerm;58330;51.888;11.052;2023-05-14T13:44:25;29.76;28.19;34.70;;
70740;Laerm;58330;51.888;11.052;2023-05-14T13:46:51;29.70;28.16;34.77;;
70740;Laerm;58330;51.888;11.052;2023-05-14T13:49:18;29.87;28.13;36.69;;
70740;Laerm;58330;51.888;11.052;2023-05-14T13:51:44;29.72;28.18;31.76;;
70740;Laerm;58330;51.888;11.052;2023-05-14T13:54:10;29.74;28.28;33.77;;
70740;Laerm;58330;51.888;11.052;2023-05-14T13:56:38;29.75;28.11;33.08;;